Time;durP1;ratioP1;P1;durP2;ratioP2;P2;SDS_P1;SDS_P2;PMS_P1;PMS_P2;Temp;Humidity;BMP_temperature;BMP_pressure;BME280_temperature;BME280_humidity;BME280_pressure;Samples;Min_cycle;Max_cycle;Signal;HPM_P1;HPM_P2
2021/10/21 00:00:11;;;;;;;4.85;3.58;;;17.20;99.90;;;;;;2068818;28;20021;-71
2021/10/21 00:01:12;;;;;;;6.38;3.47;;;17.10;99.90;;;;;;2063974;28;20096;-71
2021/10/21 00:02:13;;;;;;;6.07;3.28;;;17.20;99.90;;;;;;2063714;28;20076;-71
2021/10/21 00:03:14;;;;;;;4.97;3.28;;;17.10;99.90;;;;;;2065482;28;20113;-71
2021/10/21 00:04:14;;;;;;;4.28;2.90;;;17.20;99.90;;;;;;2071267;28;20021;-71
2021/10/21 00:05:15;;;;;;;3.50;3.00;;;17.20;99.90;;;;;;2071944;28;20026;-71
2021/10/21 00:06:16;;;;;;;3.58;3.15;;;17.20;99.90;;;;;;2072018;28;20430;-71
2021/10/21 00:07:16;;;;;;;3.53;2.90;;;17.20;99.90;;;;;;2072283;28;20053;-71
2021/10/21 00:08:17;;;;;;;6.63;3.10;;;17.20;99.90;;;;;;2078108;28;20022;-71
2021/10/21 00:09:17;;;;;;;7.20;3.60;;;17.20;99.90;;;;;;2071740;28;20049;-71
2021/10/21 00:10:18;;;;;;;4.60;3.10;;;17.20;99.90;;;;;;2070552;28;20025;-71
2021/10/21 00:11:19;;;;;;;5.15;3.00;;;17.20;99.90;;;;;;2070135;28;20052;-71
2021/10/21 00:12:19;;;;;;;6.90;3.35;;;17.20;99.90;;;;;;2072562;28;20383;-71
2021/10/21 00:13:20;;;;;;;3.92;2.97;;;17.20;99.90;;;;;;2073509;28;20109;-71
2021/10/21 00:14:21;;;;;;;4.22;2.97;;;17.20;99.90;;;;;;2073137;28;20470;-71
2021/10/21 00:15:21;;;;;;;7.03;3.20;;;17.20;99.90;;;;;;2063387;28;20418;-71
2021/10/21 00:16:22;;;;;;;4.85;3.40;;;17.20;99.90;;;;;;2064998;28;20077;-71
2021/10/21 00:17:23;;;;;;;3.97;2.80;;;17.20;99.90;;;;;;2064183;28;20015;-71
2021/10/21 00:18:23;;;;;;;5.80;3.25;;;17.20;99.90;;;;;;2063233;28;20050;-71
2021/10/21 00:19:24;;;;;;;5.38;3.15;;;17.20;99.90;;;;;;2063866;28;20029;-71
2021/10/21 00:20:25;;;;;;;5.65;3.35;;;17.20;99.90;;;;;;2066967;28;20471;-71
2021/10/21 00:21:25;;;;;;;6.45;2.95;;;17.20;99.90;;;;;;2066907;28;20229;-71
2021/10/21 00:22:26;;;;;;;5.47;3.28;;;17.20;99.90;;;;;;2071467;28;20495;-71
2021/10/21 00:23:27;;;;;;;6.75;3.25;;;17.20;99.90;;;;;;2079424;28;20768;-71
2021/10/21 00:24:27;;;;;;;4.60;2.92;;;17.20;99.90;;;;;;2066022;28;20033;-71
2021/10/21 00:25:28;;;;;;;3.50;3.00;;;17.20;99.90;;;;;;2071233;28;20042;-71
2021/10/21 00:26:29;;;;;;;3.47;2.80;;;17.20;99.90;;;;;;2070475;28;20037;-71
2021/10/21 00:27:29;;;;;;;5.35;2.88;;;17.20;99.90;;;;;;2070368;28;20037;-71
2021/10/21 00:28:30;;;;;;;3.80;3.00;;;17.20;99.90;;;;;;2063070;28;20384;-71
2021/10/21 00:29:30;;;;;;;6.00;3.45;;;17.20;99.90;;;;;;2066060;28;20022;-71
2021/10/21 00:30:31;;;;;;;5.60;3.35;;;17.20;99.90;;;;;;2064098;28;20065;-71
2021/10/21 00:31:31;;;;;;;6.72;3.13;;;17.20;99.90;;;;;;2063658;28;20471;-71
2021/10/21 00:32:32;;;;;;;3.47;2.80;;;17.20;99.90;;;;;;2063814;28;20023;-71
2021/10/21 00:33:32;;;;;;;8.40;3.45;;;17.20;99.90;;;;;;2063160;28;20165;-70
2021/10/21 00:34:34;;;;;;;7.32;3.30;;;17.30;99.90;;;;;;2063481;28;20034;-70
2021/10/21 00:35:35;;;;;;;6.65;3.17;;;17.20;99.90;;;;;;2063510;28;20026;-71
2021/10/21 00:36:35;;;;;;;4.70;3.20;;;17.20;99.90;;;;;;2067492;28;20464;-70
2021/10/21 00:37:36;;;;;;;3.40;2.50;;;17.20;99.90;;;;;;2070643;28;20441;-71
2021/10/21 00:38:37;;;;;;;6.10;3.20;;;17.20;99.90;;;;;;2071351;28;20513;-71
2021/10/21 00:39:38;;;;;;;6.65;3.47;;;17.20;99.90;;;;;;2063876;28;20030;-71
2021/10/21 00:40:38;;;;;;;6.43;3.25;;;17.20;99.90;;;;;;2063824;28;20108;-71
2021/10/21 00:41:39;;;;;;;7.13;3.72;;;17.20;99.90;;;;;;2063699;28;20778;-71
2021/10/21 00:42:39;;;;;;;6.50;3.45;;;17.20;99.90;;;;;;2063698;28;20034;-71
2021/10/21 00:43:41;;;;;;;3.33;2.92;;;17.20;99.90;;;;;;2063571;28;20034;-71
2021/10/21 00:44:42;;;;;;;5.78;3.72;;;17.20;99.90;;;;;;2064034;28;20035;-71
2021/10/21 00:45:43;;;;;;;3.28;2.97;;;17.20;99.90;;;;;;2064022;28;20526;-71
2021/10/21 00:46:44;;;;;;;6.68;3.60;;;17.20;99.90;;;;;;2071828;28;20052;-71
2021/10/21 00:47:44;;;;;;;7.10;3.72;;;17.20;99.90;;;;;;2063929;28;20449;-72
2021/10/21 00:48:45;;;;;;;5.18;2.70;;;17.20;99.90;;;;;;2062894;28;20033;-71
2021/10/21 00:49:46;;;;;;;3.85;3.00;;;17.20;99.90;;;;;;2063394;28;20386;-71
2021/10/21 00:50:47;;;;;;;5.15;3.03;;;17.20;99.90;;;;;;2063621;28;20053;-71
2021/10/21 00:51:48;;;;;;;5.28;3.17;;;17.20;99.90;;;;;;2063610;28;20065;-71
2021/10/21 00:52:49;;;;;;;5.63;3.40;;;17.20;99.90;;;;;;2063783;28;20089;-71
2021/10/21 00:53:49;;;;;;;4.88;3.10;;;17.10;99.90;;;;;;2067571;28;20545;-71
2021/10/21 00:54:51;;;;;;;5.05;3.35;;;17.10;99.90;;;;;;2071060;28;20529;-71
2021/10/21 00:55:52;;;;;;;5.40;3.63;;;17.10;99.90;;;;;;2063745;28;20076;-71
2021/10/21 00:56:54;;;;;;;6.80;3.10;;;17.10;99.90;;;;;;2067681;28;20026;-71
2021/10/21 00:57:58;;;;;;;5.47;3.50;;;17.10;99.90;;;;;;2071194;28;20162;-71
2021/10/21 00:58:58;;;;;;;7.72;3.38;;;17.10;99.90;;;;;;2066446;28;20030;-71
2021/10/21 00:59:59;;;;;;;5.68;3.50;;;17.10;99.90;;;;;;2068823;28;20021;-71
2021/10/21 01:01:00;;;;;;;5.97;3.33;;;17.10;99.90;;;;;;2063352;28;20037;-72
2021/10/21 01:02:01;;;;;;;4.47;3.10;;;17.10;99.90;;;;;;2063639;28;20025;-72
2021/10/21 01:03:02;;;;;;;6.18;3.45;;;17.10;99.90;;;;;;2064045;28;20058;-72
2021/10/21 01:04:03;;;;;;;3.67;3.15;;;17.10;99.90;;;;;;2063875;28;20085;-72
2021/10/21 01:05:04;;;;;;;4.20;3.10;;;17.00;99.90;;;;;;2063366;28;20041;-71
2021/10/21 01:06:04;;;;;;;5.35;3.15;;;17.00;99.90;;;;;;2063516;28;20026;-71
2021/10/21 01:07:06;;;;;;;5.40;3.20;;;17.00;99.90;;;;;;2063168;28;20026;-72
2021/10/21 01:08:07;;;;;;;5.72;3.03;;;16.90;99.90;;;;;;2062162;28;20578;-71
2021/10/21 01:09:08;;;;;;;8.38;2.72;;;16.90;99.90;;;;;;2062608;28;20470;-72
2021/10/21 01:10:10;;;;;;;3.95;3.10;;;16.90;99.90;;;;;;2063893;28;20537;-71
2021/10/21 01:11:13;;;;;;;4.55;2.63;;;16.90;99.90;;;;;;2066039;28;20051;-71
2021/10/21 01:12:13;;;;;;;5.05;3.08;;;16.90;99.90;;;;;;2063612;28;20022;-72
2021/10/21 01:13:14;;;;;;;3.42;3.13;;;16.90;99.90;;;;;;2064836;28;20026;-72
2021/10/21 01:14:16;;;;;;;5.07;3.00;;;16.90;99.90;;;;;;2062793;28;20057;-72
2021/10/21 01:15:26;;;;;;;4.78;3.03;;;16.90;99.90;;;;;;2062843;28;20037;-72
2021/10/21 01:16:27;;;;;;;4.82;2.95;;;16.90;99.90;;;;;;2063531;28;20024;-72
2021/10/21 01:17:28;;;;;;;7.60;3.00;;;16.90;99.90;;;;;;2063301;28;20038;-72
2021/10/21 01:18:28;;;;;;;4.20;3.10;;;16.80;99.90;;;;;;2062717;28;20030;-72
2021/10/21 01:19:29;;;;;;;3.85;2.75;;;16.80;99.90;;;;;;2063559;28;20116;-72
2021/10/21 01:20:29;;;;;;;3.28;2.53;;;16.80;99.90;;;;;;2068890;28;20053;-72
2021/10/21 01:21:30;;;;;;;5.07;2.72;;;16.80;99.90;;;;;;2066418;28;20050;-72
2021/10/21 01:22:30;;;;;;;5.25;2.70;;;16.80;99.90;;;;;;2064032;28;20022;-72
2021/10/21 01:23:32;;;;;;;2.95;2.42;;;16.80;99.90;;;;;;2071458;28;20034;-72
2021/10/21 01:24:33;;;;;;;4.63;2.55;;;16.80;99.90;;;;;;2071517;28;20057;-72
2021/10/21 01:25:34;;;;;;;2.78;2.35;;;16.80;99.90;;;;;;2071427;28;20029;-71
2021/10/21 01:26:34;;;;;;;4.65;2.17;;;16.80;99.90;;;;;;2071470;28;20022;-72
2021/10/21 01:27:36;;;;;;;3.67;2.08;;;16.80;99.90;;;;;;2063558;28;20387;-72
2021/10/21 01:28:38;;;;;;;3.03;2.17;;;16.80;99.90;;;;;;2062736;28;20023;-72
2021/10/21 01:29:39;;;;;;;5.78;2.35;;;16.80;99.90;;;;;;2068239;28;20028;-72
2021/10/21 01:30:39;;;;;;;3.78;2.45;;;16.70;99.90;;;;;;2064206;28;20029;-72
2021/10/21 01:31:40;;;;;;;3.25;2.00;;;16.70;99.90;;;;;;2071289;28;20474;-72
2021/10/21 01:32:41;;;;;;;4.07;2.00;;;16.70;99.90;;;;;;2065752;28;20032;-72
2021/10/21 01:33:41;;;;;;;2.22;1.65;;;16.70;99.90;;;;;;2070095;28;20014;-72
2021/10/21 01:34:42;;;;;;;4.57;1.80;;;16.70;99.90;;;;;;2068393;28;20041;-72
2021/10/21 01:35:43;;;;;;;2.85;2.10;;;16.70;99.90;;;;;;2068884;28;20025;-72
2021/10/21 01:36:50;;;;;;;2.55;2.00;;;16.70;99.90;;;;;;2067340;28;20029;-71
2021/10/21 01:37:51;;;;;;;2.22;1.58;;;16.70;99.90;;;;;;2068692;28;20120;-71
2021/10/21 01:38:52;;;;;;;2.22;1.63;;;16.60;99.90;;;;;;2068888;28;20022;-72
2021/10/21 01:39:52;;;;;;;3.65;1.90;;;16.70;99.90;;;;;;2063019;28;20034;-72
2021/10/21 01:40:53;;;;;;;2.38;1.75;;;16.70;99.90;;;;;;2063492;28;20467;-72
2021/10/21 01:41:54;;;;;;;2.25;1.52;;;16.60;99.90;;;;;;2069383;28;20036;-72
2021/10/21 01:42:55;;;;;;;1.80;1.67;;;16.60;99.90;;;;;;2063816;28;20034;-72
2021/10/21 01:43:56;;;;;;;3.05;1.52;;;16.60;99.90;;;;;;2062791;28;20068;-72
2021/10/21 01:44:57;;;;;;;3.28;1.63;;;16.60;99.90;;;;;;2063349;28;20091;-72
2021/10/21 01:45:57;;;;;;;2.42;1.80;;;16.60;99.90;;;;;;2063515;28;20040;-72
2021/10/21 01:46:58;;;;;;;2.92;1.92;;;16.60;99.90;;;;;;2063264;28;20022;-72
2021/10/21 01:48:01;;;;;;;2.17;1.70;;;16.60;99.90;;;;;;2063091;28;20026;-72
2021/10/21 01:49:02;;;;;;;2.05;1.55;;;16.60;99.90;;;;;;2067126;28;20030;-72
2021/10/21 01:50:03;;;;;;;2.92;1.98;;;16.60;99.90;;;;;;2071303;28;20025;-72
2021/10/21 01:51:04;;;;;;;1.95;1.60;;;16.60;99.90;;;;;;2063868;28;20015;-72
2021/10/21 01:52:05;;;;;;;2.13;1.33;;;16.60;99.90;;;;;;2063036;28;20095;-72
2021/10/21 01:53:06;;;;;;;3.72;1.63;;;16.60;99.90;;;;;;2063441;28;20027;-72
2021/10/21 01:54:06;;;;;;;2.25;1.50;;;16.60;99.90;;;;;;2062979;28;20050;-72
2021/10/21 01:55:08;;;;;;;4.25;1.80;;;16.60;99.90;;;;;;2069909;28;20072;-72
2021/10/21 01:56:09;;;;;;;2.45;1.70;;;16.50;99.90;;;;;;2067957;28;20378;-72
2021/10/21 01:57:09;;;;;;;2.58;1.58;;;16.50;99.90;;;;;;2068377;28;20031;-72
2021/10/21 01:58:10;;;;;;;2.70;1.60;;;16.50;99.90;;;;;;2070950;28;20113;-72
2021/10/21 01:59:11;;;;;;;2.20;1.55;;;16.50;99.90;;;;;;2067011;28;20026;-72
2021/10/21 02:00:14;;;;;;;1.70;1.40;;;16.50;99.90;;;;;;2067773;28;20562;-72
2021/10/21 02:01:15;;;;;;;3.15;1.25;;;16.50;99.90;;;;;;2064692;28;20039;-71
2021/10/21 02:02:15;;;;;;;2.10;1.23;;;16.50;99.90;;;;;;2071882;28;20053;-72
2021/10/21 02:03:16;;;;;;;3.15;1.50;;;16.50;99.90;;;;;;2074594;28;20470;-72
2021/10/21 02:04:16;;;;;;;4.68;1.48;;;16.50;99.90;;;;;;2072481;28;20022;-71
2021/10/21 02:05:18;;;;;;;1.95;1.20;;;16.50;99.90;;;;;;2072556;28;20100;-72
2021/10/21 02:06:19;;;;;;;10.27;1.50;;;16.50;99.90;;;;;;2072463;28;20022;-71
2021/10/21 02:07:19;;;;;;;3.03;1.27;;;16.40;99.90;;;;;;2072754;28;20108;-72
2021/10/21 02:08:20;;;;;;;1.15;0.90;;;16.40;99.90;;;;;;2067696;28;20054;-72
2021/10/21 02:09:21;;;;;;;3.22;1.35;;;16.40;99.90;;;;;;2064484;28;20050;-72
2021/10/21 02:10:21;;;;;;;3.25;1.13;;;16.40;99.90;;;;;;2070895;28;20026;-72
2021/10/21 02:11:22;;;;;;;4.22;1.00;;;16.40;99.90;;;;;;2070368;28;20022;-72
2021/10/21 02:12:22;;;;;;;1.73;0.98;;;16.40;99.90;;;;;;2064635;28;20014;-72
2021/10/21 02:13:23;;;;;;;4.13;1.13;;;16.40;99.90;;;;;;2064601;28;20022;-71
2021/10/21 02:14:24;;;;;;;3.65;1.30;;;16.40;99.90;;;;;;2064377;28;20018;-71
2021/10/21 02:15:24;;;;;;;2.80;0.85;;;16.30;99.90;;;;;;2064781;28;20413;-71
2021/10/21 02:16:25;;;;;;;5.50;1.20;;;16.40;99.90;;;;;;2064440;28;20037;-72
2021/10/21 02:17:25;;;;;;;2.50;1.02;;;16.30;99.90;;;;;;2065667;28;20034;-71
2021/10/21 02:18:27;;;;;;;3.20;1.23;;;16.30;99.90;;;;;;2069976;28;20447;-71
2021/10/21 02:19:28;;;;;;;2.17;1.17;;;16.20;99.90;;;;;;2070014;28;20010;-71
2021/10/21 02:20:29;;;;;;;3.92;1.30;;;16.10;99.90;;;;;;2069971;28;20470;-71
2021/10/21 02:21:29;;;;;;;2.17;1.10;;;16.10;99.90;;;;;;2066443;28;20026;-71
2021/10/21 02:22:30;;;;;;;2.85;1.25;;;16.10;99.90;;;;;;2064630;28;20027;-71
2021/10/21 02:23:30;;;;;;;1.77;1.00;;;16.10;99.90;;;;;;2080232;28;20022;-71
2021/10/21 02:24:32;;;;;;;1.55;0.80;;;16.00;99.90;;;;;;2067829;28;20037;-71
2021/10/21 02:25:33;;;;;;;7.00;1.75;;;16.00;99.90;;;;;;2064476;28;20054;-71
2021/10/21 02:26:33;;;;;;;2.72;1.38;;;16.00;99.90;;;;;;2064623;28;20026;-71
2021/10/21 02:27:34;;;;;;;2.10;1.00;;;16.00;99.90;;;;;;2064337;28;20371;-71
2021/10/21 02:28:34;;;;;;;2.70;1.40;;;15.90;99.90;;;;;;2065694;28;20021;-71
2021/10/21 02:29:35;;;;;;;3.15;1.67;;;15.90;99.90;;;;;;2071467;28;20516;-72
2021/10/21 02:30:36;;;;;;;2.28;1.08;;;15.90;99.90;;;;;;2072758;28;20013;-71
2021/10/21 02:31:36;;;;;;;5.28;1.10;;;15.90;99.90;;;;;;2071872;28;20025;-71
2021/10/21 02:32:38;;;;;;;2.42;1.30;;;15.80;99.90;;;;;;2068533;28;20052;-72
2021/10/21 02:33:39;;;;;;;2.67;1.10;;;15.80;99.90;;;;;;2064369;28;20027;-71
2021/10/21 02:34:40;;;;;;;3.40;1.30;;;15.80;99.90;;;;;;2064677;28;20088;-71
2021/10/21 02:35:41;;;;;;;3.25;1.25;;;15.80;99.90;;;;;;2064161;28;20497;-72
2021/10/21 02:36:41;;;;;;;2.42;1.08;;;15.70;99.90;;;;;;2068570;28;20104;-71
2021/10/21 02:37:42;;;;;;;3.58;1.52;;;15.70;99.90;;;;;;2070137;28;20037;-71
2021/10/21 02:38:42;;;;;;;5.30;1.33;;;15.70;99.90;;;;;;2071297;28;20022;-71
2021/10/21 02:39:43;;;;;;;3.80;0.80;;;15.60;99.90;;;;;;2064132;28;20030;-71
2021/10/21 02:40:44;;;;;;;3.95;1.38;;;15.60;99.90;;;;;;2064594;28;20045;-71
2021/10/21 02:41:44;;;;;;;5.80;1.20;;;15.60;99.90;;;;;;2071947;28;20041;-71
2021/10/21 02:42:45;;;;;;;4.05;1.10;;;15.50;99.90;;;;;;2065446;28;20027;-71
2021/10/21 02:43:45;;;;;;;6.80;1.15;;;15.50;99.90;;;;;;2064343;28;20030;-72
2021/10/21 02:44:46;;;;;;;3.45;1.00;;;15.50;99.90;;;;;;2065532;28;21097;-72
2021/10/21 02:45:46;;;;;;;4.20;1.30;;;15.40;99.90;;;;;;2068187;28;20056;-72
2021/10/21 02:46:47;;;;;;;9.30;1.65;;;15.40;99.90;;;;;;2072291;28;20026;-72
2021/10/21 02:47:48;;;;;;;5.82;1.58;;;15.40;99.90;;;;;;2064409;28;20026;-71
2021/10/21 02:48:49;;;;;;;5.80;1.40;;;15.40;99.90;;;;;;2063790;28;20024;-71
2021/10/21 02:49:50;;;;;;;6.50;1.60;;;15.40;99.90;;;;;;2064220;28;20031;-72
2021/10/21 02:50:50;;;;;;;4.78;1.13;;;15.40;99.90;;;;;;2064588;28;20487;-71
2021/10/21 02:51:51;;;;;;;6.07;1.38;;;15.30;99.90;;;;;;2065431;28;20110;-72
2021/10/21 02:52:52;;;;;;;5.80;1.27;;;15.30;99.90;;;;;;2073483;28;20068;-71
2021/10/21 02:53:52;;;;;;;4.35;1.00;;;15.30;99.90;;;;;;2068460;28;20018;-72
2021/10/21 02:54:53;;;;;;;6.80;1.42;;;15.30;99.90;;;;;;2066315;28;20110;-72
2021/10/21 02:55:55;;;;;;;6.53;1.77;;;15.30;99.90;;;;;;2073965;28;20409;-71
2021/10/21 02:56:55;;;;;;;6.22;1.15;;;15.30;99.90;;;;;;2074275;28;20033;-71
2021/10/21 02:57:56;;;;;;;2.22;1.02;;;15.30;99.90;;;;;;2073343;28;20049;-72
2021/10/21 02:58:56;;;;;;;4.68;1.40;;;15.30;99.90;;;;;;2067539;28;20097;-72
2021/10/21 02:59:57;;;;;;;2.42;1.00;;;15.30;99.90;;;;;;2072070;28;20026;-72
2021/10/21 03:00:57;;;;;;;8.55;1.20;;;15.30;99.90;;;;;;2075121;28;20030;-72
2021/10/21 03:01:58;;;;;;;5.45;1.25;;;15.30;99.90;;;;;;2068008;28;20047;-72
2021/10/21 03:02:58;;;;;;;6.43;1.48;;;15.30;99.90;;;;;;2077418;28;20109;-73
2021/10/21 03:03:59;;;;;;;8.73;1.35;;;15.30;99.90;;;;;;2064976;28;20058;-72
2021/10/21 03:05:00;;;;;;;7.47;1.73;;;15.30;99.90;;;;;;2068464;28;20469;-71
2021/10/21 03:06:00;;;;;;;4.07;1.02;;;15.30;99.90;;;;;;2064999;28;20482;-72
2021/10/21 03:07:01;;;;;;;5.90;0.98;;;15.20;99.90;;;;;;2064837;28;20105;-72
2021/10/21 03:08:01;;;;;;;3.08;1.08;;;15.20;99.90;;;;;;2064952;28;20477;-71
2021/10/21 03:09:02;;;;;;;3.25;1.10;;;15.20;99.90;;;;;;2069610;28;20021;-71
2021/10/21 03:10:03;;;;;;;3.85;0.95;;;15.20;99.90;;;;;;2067653;28;20471;-72
2021/10/21 03:11:03;;;;;;;4.20;1.20;;;15.20;99.90;;;;;;2069876;28;20105;-71
2021/10/21 03:12:04;;;;;;;4.97;1.20;;;15.20;99.90;;;;;;2064107;28;20484;-72
2021/10/21 03:13:05;;;;;;;3.35;0.77;;;15.20;99.90;;;;;;2067091;28;20024;-71
2021/10/21 03:14:05;;;;;;;2.75;1.10;;;15.20;99.90;;;;;;2072713;28;20030;-73
2021/10/21 03:15:06;;;;;;;4.35;1.20;;;15.20;99.90;;;;;;2065474;28;20895;-71
2021/10/21 03:16:07;;;;;;;2.70;1.00;;;15.10;99.90;;;;;;2064620;28;20062;-71
2021/10/21 03:17:07;;;;;;;3.08;1.13;;;15.10;99.90;;;;;;2066146;28;20378;-72
2021/10/21 03:18:08;;;;;;;6.13;1.30;;;15.10;99.90;;;;;;2068010;28;20030;-72
2021/10/21 03:19:09;;;;;;;4.75;1.00;;;15.10;99.90;;;;;;2064143;28;20593;-73
2021/10/21 03:20:13;;;;;;;7.03;1.50;;;15.10;99.90;;;;;;2066753;28;20026;-72
2021/10/21 03:21:14;;;;;;;3.65;0.88;;;15.10;99.90;;;;;;2064320;28;20061;-71
2021/10/21 03:22:15;;;;;;;4.25;1.23;;;15.10;99.90;;;;;;2064786;28;20037;-72
2021/10/21 03:23:19;;;;;;;6.60;1.48;;;15.10;99.90;;;;;;2064596;28;20685;-71
2021/10/21 03:24:19;;;;;;;5.00;1.50;;;15.10;99.90;;;;;;2064419;28;20025;-71
2021/10/21 03:25:20;;;;;;;4.68;1.10;;;15.10;99.90;;;;;;2064326;28;20481;-71
2021/10/21 03:26:21;;;;;;;3.25;1.33;;;15.10;99.90;;;;;;2064430;28;20017;-72
2021/10/21 03:27:22;;;;;;;4.63;1.48;;;15.10;99.90;;;;;;2070787;28;20022;-72
2021/10/21 03:28:23;;;;;;;4.88;1.02;;;15.20;99.90;;;;;;2064203;28;20041;-71
2021/10/21 03:29:23;;;;;;;4.47;1.17;;;15.10;99.90;;;;;;2063966;28;20034;-71
2021/10/21 03:30:24;;;;;;;5.28;1.42;;;15.10;99.90;;;;;;2064632;28;20474;-71
2021/10/21 03:31:29;;;;;;;6.45;1.20;;;15.10;99.90;;;;;;2072294;28;20097;-72
2021/10/21 03:32:29;;;;;;;5.90;1.20;;;15.10;99.90;;;;;;2072262;28;20033;-71
2021/10/21 03:33:30;;;;;;;3.60;1.13;;;15.10;99.90;;;;;;2072645;28;20513;-71
2021/10/21 03:34:33;;;;;;;4.57;0.90;;;15.10;99.90;;;;;;2071391;28;20025;-71
2021/10/21 03:35:33;;;;;;;5.50;1.58;;;15.10;99.90;;;;;;2071140;28;20018;-71
2021/10/21 03:36:34;;;;;;;4.25;1.10;;;15.10;99.90;;;;;;2067336;28;20474;-72
2021/10/21 03:37:34;;;;;;;5.75;1.02;;;15.10;99.90;;;;;;2070165;28;20130;-71
2021/10/21 03:38:35;;;;;;;6.60;1.23;;;15.10;99.90;;;;;;2063184;28;20080;-71
2021/10/21 03:39:36;;;;;;;2.45;0.75;;;15.10;99.90;;;;;;2063983;28;20030;-72
2021/10/21 03:40:36;;;;;;;3.85;0.82;;;15.10;99.90;;;;;;2064542;28;20045;-71
2021/10/21 03:41:37;;;;;;;4.65;1.25;;;15.10;99.90;;;;;;2064271;28;20030;-71
2021/10/21 03:42:38;;;;;;;3.10;0.90;;;15.10;99.90;;;;;;2070188;28;20105;-72
2021/10/21 03:43:38;;;;;;;4.93;1.15;;;15.10;99.90;;;;;;2072561;28;20026;-71
2021/10/21 03:44:39;;;;;;;8.63;1.75;;;15.10;99.90;;;;;;2072186;28;20037;-72
2021/10/21 03:45:40;;;;;;;5.03;1.10;;;15.10;99.90;;;;;;2072297;28;20022;-71
2021/10/21 03:46:40;;;;;;;8.88;1.38;;;15.00;99.90;;;;;;2072320;28;20076;-71
2021/10/21 03:47:41;;;;;;;3.95;1.00;;;15.00;99.90;;;;;;2072157;28;20026;-71
2021/10/21 03:48:41;;;;;;;5.45;1.33;;;15.10;99.90;;;;;;2067965;28;20041;-71
2021/10/21 03:49:42;;;;;;;3.15;0.80;;;15.10;99.90;;;;;;2064466;28;20427;-71
2021/10/21 03:50:43;;;;;;;5.57;1.38;;;15.00;99.90;;;;;;2064244;28;20085;-71
2021/10/21 03:51:43;;;;;;;4.03;1.42;;;15.00;99.90;;;;;;2064351;28;20029;-71
2021/10/21 03:52:44;;;;;;;3.63;1.20;;;15.00;99.90;;;;;;2064149;28;20027;-71
2021/10/21 03:53:44;;;;;;;5.80;1.25;;;15.00;99.90;;;;;;2064425;28;20038;-71
2021/10/21 03:54:46;;;;;;;6.75;1.35;;;15.00;99.90;;;;;;2070552;28;20442;-72
2021/10/21 03:55:46;;;;;;;6.10;1.23;;;15.00;99.90;;;;;;2064670;28;20120;-71
2021/10/21 03:56:47;;;;;;;4.00;1.33;;;15.00;99.90;;;;;;2063902;28;20037;-71
2021/10/21 03:57:48;;;;;;;3.85;0.90;;;15.00;99.90;;;;;;2070626;28;20029;-71
2021/10/21 03:58:49;;;;;;;3.90;1.10;;;15.10;99.90;;;;;;2066652;28;20046;-71
2021/10/21 03:59:50;;;;;;;6.22;1.20;;;15.00;99.90;;;;;;2071197;28;20072;-71
2021/10/21 04:00:50;;;;;;;4.00;1.17;;;15.00;99.90;;;;;;2064246;28;20054;-71
2021/10/21 04:01:53;;;;;;;6.80;1.48;;;15.00;99.90;;;;;;2064274;28;20022;-71
2021/10/21 04:02:54;;;;;;;3.50;1.15;;;15.00;99.90;;;;;;2064179;28;20030;-71
2021/10/21 04:03:54;;;;;;;4.18;1.10;;;15.00;99.90;;;;;;2063879;28;20479;-71
2021/10/21 04:04:55;;;;;;;3.83;1.00;;;15.10;99.90;;;;;;2064011;28;20475;-71
2021/10/21 04:05:55;;;;;;;4.18;1.00;;;15.00;99.90;;;;;;2064385;28;20109;-71
2021/10/21 04:06:56;;;;;;;3.55;1.10;;;15.00;99.90;;;;;;2063943;28;20035;-71
2021/10/21 04:07:56;;;;;;;2.63;1.05;;;15.10;99.90;;;;;;2065324;28;20422;-72
2021/10/21 04:08:57;;;;;;;3.72;1.00;;;15.00;99.90;;;;;;2069926;28;20030;-71
2021/10/21 04:09:57;;;;;;;7.47;1.20;;;15.00;99.90;;;;;;2068350;28;20040;-71
2021/10/21 04:10:58;;;;;;;7.30;1.50;;;15.10;99.90;;;;;;2068526;28;20086;-71
2021/10/21 04:11:59;;;;;;;4.13;1.17;;;15.00;99.90;;;;;;2065292;28;20054;-71
2021/10/21 04:12:59;;;;;;;4.05;1.40;;;15.00;99.90;;;;;;2064081;28;20022;-71
2021/10/21 04:14:00;;;;;;;5.30;1.17;;;15.00;99.90;;;;;;2063679;28;20392;-71
2021/10/21 04:15:01;;;;;;;2.90;1.10;;;15.00;99.90;;;;;;2063486;28;20450;-71
2021/10/21 04:16:01;;;;;;;7.70;1.23;;;15.00;99.90;;;;;;2064134;28;20026;-71
2021/10/21 04:17:02;;;;;;;5.53;1.27;;;15.00;99.90;;;;;;2071112;28;20072;-71
2021/10/21 04:18:03;;;;;;;3.92;1.25;;;15.00;99.90;;;;;;2068357;28;20038;-71
2021/10/21 04:19:03;;;;;;;5.47;1.00;;;15.00;99.90;;;;;;2063653;28;20054;-71
2021/10/21 04:20:05;;;;;;;4.25;1.38;;;15.00;99.90;;;;;;2065903;28;20026;-72
2021/10/21 04:21:06;;;;;;;3.45;1.02;;;15.00;99.90;;;;;;2069896;28;20029;-71
2021/10/21 04:22:06;;;;;;;5.20;1.15;;;15.00;99.90;;;;;;2069720;28;20052;-71
2021/10/21 04:23:07;;;;;;;5.50;1.33;;;15.00;99.90;;;;;;2066759;28;20471;-71
2021/10/21 04:24:07;;;;;;;4.90;1.10;;;15.00;99.90;;;;;;2064061;28;20030;-72
2021/10/21 04:25:08;;;;;;;3.83;1.05;;;15.00;99.90;;;;;;2064089;28;20049;-71
2021/10/21 04:26:09;;;;;;;3.40;0.93;;;15.10;99.90;;;;;;2063929;28;20399;-71
2021/10/21 04:27:09;;;;;;;4.15;0.90;;;15.10;99.90;;;;;;2064136;28;20363;-71
2021/10/21 04:28:10;;;;;;;5.75;1.00;;;15.10;99.90;;;;;;2063201;28;20022;-71
2021/10/21 04:29:11;;;;;;;4.15;1.40;;;15.10;99.90;;;;;;2063943;28;20014;-71
2021/10/21 04:30:12;;;;;;;7.10;1.65;;;15.10;99.90;;;;;;2063900;28;20038;-71
2021/10/21 04:31:13;;;;;;;3.38;1.13;;;15.10;99.90;;;;;;2066892;28;20109;-71
2021/10/21 04:32:14;;;;;;;3.40;0.98;;;15.10;99.90;;;;;;2070670;28;20025;-71
2021/10/21 04:33:15;;;;;;;5.50;1.35;;;15.10;99.90;;;;;;2071711;28;20026;-71
2021/10/21 04:34:16;;;;;;;3.67;1.15;;;15.10;99.90;;;;;;2069963;28;20023;-71
2021/10/21 04:35:16;;;;;;;6.30;1.05;;;15.10;99.90;;;;;;2070609;28;20030;-71
2021/10/21 04:36:17;;;;;;;2.17;0.90;;;15.10;99.90;;;;;;2070478;28;20056;-71
2021/10/21 04:37:17;;;;;;;2.70;1.10;;;15.10;99.90;;;;;;2071882;28;20120;-71
2021/10/21 04:38:18;;;;;;;3.63;1.05;;;15.10;99.90;;;;;;2071184;28;20073;-71
2021/10/21 04:39:18;;;;;;;2.50;0.80;;;15.10;99.90;;;;;;2071904;28;20121;-71
2021/10/21 04:40:19;;;;;;;8.80;1.60;;;15.10;99.90;;;;;;2071137;28;20033;-72
2021/10/21 04:41:20;;;;;;;3.47;1.20;;;15.10;99.90;;;;;;2071636;28;20072;-71
2021/10/21 04:42:20;;;;;;;5.03;1.20;;;15.10;99.90;;;;;;2070976;28;20034;-72
2021/10/21 04:43:21;;;;;;;3.08;1.00;;;15.10;99.90;;;;;;2071575;28;20024;-71
2021/10/21 04:44:21;;;;;;;10.25;1.45;;;15.10;99.90;;;;;;2068538;28;20085;-71
2021/10/21 04:45:22;;;;;;;5.30;1.10;;;15.00;99.90;;;;;;2069893;28;20042;-71
2021/10/21 04:46:22;;;;;;;5.15;1.15;;;15.00;99.90;;;;;;2068808;28;20537;-71
2021/10/21 04:47:23;;;;;;;4.20;1.30;;;15.00;99.90;;;;;;2070248;28;20033;-71
2021/10/21 04:48:23;;;;;;;5.00;1.10;;;15.00;99.90;;;;;;2070948;28;20093;-71
2021/10/21 04:49:24;;;;;;;3.65;1.00;;;15.00;99.90;;;;;;2069938;28;20174;-72
2021/10/21 04:50:25;;;;;;;5.88;1.15;;;15.00;99.90;;;;;;2072013;28;20037;-71
2021/10/21 04:51:26;;;;;;;4.32;0.90;;;15.00;99.90;;;;;;2071805;28;20947;-72
2021/10/21 04:52:27;;;;;;;3.33;0.90;;;15.00;99.90;;;;;;2071791;28;20093;-72
2021/10/21 04:53:28;;;;;;;3.00;0.70;;;15.00;99.90;;;;;;2071291;28;20017;-72
2021/10/21 04:54:29;;;;;;;4.32;0.77;;;14.90;99.90;;;;;;2070968;28;20049;-72
2021/10/21 04:55:34;;;;;;;3.00;0.70;;;14.90;99.90;;;;;;2069085;28;20100;-72
2021/10/21 04:56:35;;;;;;;5.90;1.00;;;14.90;99.90;;;;;;2069725;28;20026;-72
2021/10/21 04:57:36;;;;;;;1.48;0.77;;;14.90;99.90;;;;;;2069754;28;20477;-72
2021/10/21 04:58:36;;;;;;;2.25;0.88;;;14.90;99.90;;;;;;2070056;28;20029;-72
2021/10/21 04:59:37;;;;;;;1.65;0.68;;;14.90;99.90;;;;;;2071182;28;20149;-72
2021/10/21 05:00:37;;;;;;;2.95;0.90;;;14.90;99.90;;;;;;2072243;28;20021;-72
2021/10/21 05:01:38;;;;;;;4.28;1.05;;;14.90;99.90;;;;;;2071458;28;20022;-71
2021/10/21 05:02:39;;;;;;;4.85;0.73;;;14.90;99.90;;;;;;2070592;28;20440;-72
2021/10/21 05:03:39;;;;;;;3.92;1.00;;;14.90;99.90;;;;;;2066075;28;20104;-72
2021/10/21 05:04:40;;;;;;;2.78;0.70;;;14.90;99.90;;;;;;2070821;28;20032;-71
2021/10/21 05:05:41;;;;;;;5.05;1.20;;;14.90;99.90;;;;;;2071418;28;20430;-72
2021/10/21 05:06:42;;;;;;;1.67;0.70;;;14.90;99.90;;;;;;2072036;28;20409;-72
2021/10/21 05:07:43;;;;;;;3.38;0.80;;;14.90;99.90;;;;;;2067978;28;20116;-72
2021/10/21 05:08:43;;;;;;;5.60;1.20;;;14.90;99.90;;;;;;2069430;28;20030;-71
2021/10/21 05:09:44;;;;;;;1.67;0.88;;;14.90;99.90;;;;;;2069331;28;20037;-72
2021/10/21 05:10:44;;;;;;;5.93;0.77;;;14.90;99.90;;;;;;2067238;28;20022;-71
2021/10/21 05:11:45;;;;;;;1.73;0.88;;;14.90;99.90;;;;;;2066042;28;20030;-71
2021/10/21 05:12:45;;;;;;;1.58;0.68;;;14.90;99.90;;;;;;2066501;28;20026;-71
2021/10/21 05:13:46;;;;;;;2.30;0.63;;;14.90;99.90;;;;;;2063730;28;20030;-71
2021/10/21 05:14:46;;;;;;;3.80;0.75;;;14.90;99.90;;;;;;2063064;28;20098;-72
2021/10/21 05:15:47;;;;;;;5.80;0.90;;;14.90;99.90;;;;;;2063352;28;20153;-71
2021/10/21 05:16:47;;;;;;;1.58;0.50;;;14.90;99.90;;;;;;2067601;28;20391;-71